createdAt,value
2019-05-03T00:01:48.050Z,10.50
2019-05-03T00:04:18.896Z,10.50
2019-05-03T00:06:52.871Z,10.50
2019-05-03T00:09:29.054Z,10.50
2019-05-03T00:11:59.337Z,10.50
2019-05-03T00:14:29.715Z,10.40
2019-05-03T00:16:59.998Z,10.40
2019-05-03T00:19:32.728Z,10.40
2019-05-03T00:22:03.237Z,10.40
2019-05-03T00:24:36.967Z,10.50
2019-05-03T00:27:09.779Z,10.40
2019-05-03T00:29:41.648Z,10.40
2019-05-03T00:32:12.491Z,10.30
2019-05-03T00:34:46.542Z,10.30
2019-05-03T00:37:18.170Z,10.40
2019-05-03T00:40:01.886Z,10.30
2019-05-03T00:42:32.487Z,10.20
2019-05-03T00:45:03.246Z,10.20
2019-05-03T00:47:33.949Z,10.30
2019-05-03T00:50:04.340Z,10.30
2019-05-03T00:52:34.828Z,10.20
2019-05-03T00:55:15.768Z,10.30
2019-05-03T00:57:47.779Z,10.30
2019-05-03T01:00:19.202Z,10.20
2019-05-03T01:02:51.675Z,10.30
2019-05-03T01:05:23.421Z,10.20
2019-05-03T01:07:53.834Z,10.20
2019-05-03T01:10:23.998Z,10.30
2019-05-03T01:12:54.142Z,10.30
2019-05-03T01:15:40.104Z,10.30
2019-05-03T01:18:12.385Z,10.30
2019-05-03T01:20:42.711Z,10.20
2019-05-03T01:23:13.286Z,10.20
2019-05-03T01:25:46.027Z,10.20
2019-05-03T01:28:27.215Z,10.30
2019-05-03T01:30:57.628Z,10.40
2019-05-03T01:33:28.335Z,10.30
2019-05-03T01:36:03.881Z,10.40
2019-05-03T01:38:34.584Z,10.40
2019-05-03T01:41:08.404Z,10.40
2019-05-03T01:43:42.040Z,10.20
2019-05-03T01:46:12.086Z,10.10
2019-05-03T01:48:54.814Z,10.10
2019-05-03T01:51:32.581Z,10.10
2019-05-03T01:54:05.392Z,10.10
2019-05-03T01:56:56.015Z,10.20
2019-05-03T01:59:18.037Z,10.20
2019-05-03T02:02:07.158Z,10.20
2019-05-03T02:04:47.398Z,10.20
2019-05-03T02:07:17.834Z,10.10
2019-05-03T02:09:51.948Z,10.00
2019-05-03T02:12:22.329Z,10.10
2019-05-03T02:14:52.431Z,10.10
2019-05-03T02:17:22.695Z,10.20
2019-05-03T02:19:53.176Z,10.20
2019-05-03T02:22:28.413Z,10.20
2019-05-03T02:24:58.647Z,10.20
2019-05-03T02:27:28.790Z,10.20
2019-05-03T02:30:03.010Z,10.20
2019-05-03T02:32:33.431Z,10.20
2019-05-03T02:35:10.195Z,10.20
2019-05-03T02:37:46.640Z,10.20
2019-05-03T02:40:20.626Z,10.20
2019-05-03T02:43:11.623Z,10.20
2019-05-03T02:46:10.616Z,10.00
2019-05-03T02:49:08.999Z,10.10
2019-05-03T02:51:40.899Z,10.10
2019-05-03T02:54:11.670Z,10.00
2019-05-03T02:56:41.795Z,10.10
2019-05-03T02:59:11.914Z,10.00
2019-05-03T03:01:47.707Z,10.00
2019-05-03T03:04:19.037Z,10.10
2019-05-03T03:06:51.537Z,10.10
2019-05-03T03:09:25.899Z,10.10
2019-05-03T03:11:58.100Z,10.10
2019-05-03T03:14:32.984Z,10.00
2019-05-03T03:17:06.701Z,10.00
2019-05-03T03:19:38.259Z,10.00
2019-05-03T03:22:11.196Z,10.10
2019-05-03T03:24:45.968Z,10.10
2019-05-03T03:27:18.880Z,10.20
2019-05-03T03:29:57.380Z,10.20
2019-05-03T03:32:38.088Z,10.20
2019-05-03T03:35:20.201Z,10.20
2019-05-03T03:37:46.492Z,10.20
2019-05-03T03:40:20.959Z,10.20
2019-05-03T03:42:59.151Z,10.10
2019-05-03T03:45:31.462Z,10.10
2019-05-03T03:48:02.076Z,10.20
2019-05-03T03:50:35.871Z,10.20
2019-05-03T03:53:08.026Z,10.10
2019-05-03T03:55:45.844Z,10.20
2019-05-03T03:58:22.045Z,10.20
2019-05-03T04:00:55.507Z,10.20
2019-05-03T04:03:26.529Z,10.20
2019-05-03T04:05:57.221Z,10.10
2019-05-03T04:08:27.741Z,10.10
2019-05-03T04:11:00.785Z,10.10
2019-05-03T04:13:35.980Z,10.10
2019-05-03T04:16:21.005Z,10.10
2019-05-03T04:19:05.928Z,10.20
2019-05-03T04:21:41.119Z,10.20
2019-05-03T04:24:11.309Z,10.30
2019-05-03T04:26:41.869Z,10.30
2019-05-03T04:29:12.651Z,10.20
2019-05-03T04:31:48.394Z,10.10
2019-05-03T04:34:18.442Z,10.00
2019-05-03T04:36:50.917Z,10.00
2019-05-03T04:39:21.438Z,9.80
2019-05-03T04:41:51.907Z,9.70
2019-05-03T04:44:21.992Z,9.70
2019-05-03T04:46:55.989Z,9.60
2019-05-03T04:49:26.090Z,9.70
2019-05-03T04:51:56.355Z,9.70
2019-05-03T04:54:49.461Z,9.60
2019-05-03T04:57:36.379Z,9.70
2019-05-03T04:59:56.095Z,9.80
2019-05-03T05:02:27.659Z,9.80
2019-05-03T05:04:57.931Z,9.80
2019-05-03T05:07:30.548Z,9.80
2019-05-03T05:10:05.182Z,9.70
2019-05-03T05:12:39.006Z,9.80
2019-05-03T05:15:11.800Z,9.80
2019-05-03T05:17:51.183Z,9.80
2019-05-03T05:20:45.418Z,9.80
2019-05-03T05:23:15.683Z,9.90
2019-05-03T05:25:51.552Z,9.90
2019-05-03T05:28:41.023Z,9.80
2019-05-03T05:31:15.017Z,9.80
2019-05-03T05:33:47.560Z,9.80
2019-05-03T05:36:17.458Z,9.80
2019-05-03T05:38:47.951Z,9.80
2019-05-03T05:41:20.163Z,9.80
2019-05-03T05:43:54.983Z,9.80
2019-05-03T05:46:27.903Z,9.90
2019-05-03T05:48:57.900Z,9.80
2019-05-03T05:51:28.505Z,9.80
2019-05-03T05:53:58.539Z,9.80
2019-05-03T05:56:41.725Z,9.70
2019-05-03T05:59:42.796Z,9.70
2019-05-03T06:02:14.945Z,9.70
2019-05-03T06:04:45.222Z,9.80
2019-05-03T06:07:37.230Z,9.70
2019-05-03T06:10:26.490Z,9.70
2019-05-03T06:13:18.844Z,9.70
2019-05-03T06:16:11.283Z,9.70
2019-05-03T06:19:18.883Z,9.70
2019-05-03T06:21:55.033Z,9.70
2019-05-03T06:24:29.992Z,9.70
2019-05-03T06:27:05.355Z,9.80
2019-05-03T06:29:36.046Z,9.80
2019-05-03T06:32:12.266Z,9.70
2019-05-03T06:34:42.376Z,9.80
2019-05-03T06:37:15.138Z,9.80
2019-05-03T06:39:45.636Z,9.90
2019-05-03T06:42:19.124Z,9.90
2019-05-03T06:44:51.342Z,9.90
2019-05-03T06:47:21.463Z,10.00
2019-05-03T06:49:51.510Z,10.00
2019-05-03T06:52:27.597Z,10.10
2019-05-03T06:54:55.354Z,10.10
2019-05-03T06:57:26.059Z,10.10
2019-05-03T07:00:07.498Z,10.20
2019-05-03T07:03:05.646Z,10.20
2019-05-03T07:06:01.406Z,10.20
2019-05-03T07:08:49.877Z,10.30
2019-05-03T07:11:20.616Z,9.70
2019-05-03T07:13:50.893Z,9.60
2019-05-03T07:16:21.400Z,9.40
2019-05-03T07:18:51.330Z,9.20
2019-05-03T07:21:21.615Z,9.10
2019-05-03T07:23:52.283Z,9.20
2019-05-03T07:26:25.442Z,9.20
2019-05-03T07:28:54.554Z,9.30
2019-05-03T07:31:25.492Z,9.30
2019-05-03T07:33:55.805Z,9.40
2019-05-03T07:36:28.333Z,9.40
2019-05-03T07:38:58.696Z,9.40
2019-05-03T07:41:28.715Z,9.30
2019-05-03T07:43:59.303Z,9.30
2019-05-03T07:46:31.714Z,9.30
2019-05-03T07:49:00.983Z,9.50
2019-05-03T07:51:31.014Z,9.30
2019-05-03T07:54:04.525Z,9.40
2019-05-03T07:56:38.618Z,9.50
2019-05-03T07:59:08.775Z,9.60
2019-05-03T08:01:45.421Z,9.60
2019-05-03T08:04:15.413Z,9.60
2019-05-03T08:06:48.676Z,9.50
2019-05-03T08:09:21.773Z,9.60
2019-05-03T08:11:52.213Z,9.70
2019-05-03T08:14:22.283Z,9.60
2019-05-03T08:16:54.607Z,9.60
2019-05-03T08:19:26.963Z,9.60
2019-05-03T08:25:25.436Z,9.60
2019-05-03T08:27:55.814Z,9.60
2019-05-03T08:30:44.510Z,9.50
2019-05-03T08:33:24.871Z,9.40
2019-05-03T08:35:55.505Z,9.40
2019-05-03T08:38:25.946Z,9.40
2019-05-03T08:40:57.838Z,9.30
2019-05-03T08:43:27.752Z,9.20
2019-05-03T08:45:57.987Z,9.10
2019-05-03T08:48:27.858Z,9.20
2019-05-03T08:50:57.718Z,9.30
2019-05-03T08:53:27.689Z,9.40
2019-05-03T08:55:57.705Z,9.50
2019-05-03T08:58:29.761Z,9.50
2019-05-03T09:01:01.015Z,9.30
2019-05-03T09:03:31.383Z,9.30
2019-05-03T09:06:01.746Z,9.40
2019-05-03T09:08:31.975Z,9.30
2019-05-03T09:11:30.831Z,9.30
2019-05-03T09:13:55.957Z,9.40
2019-05-03T09:16:26.054Z,9.40
2019-05-03T09:18:56.023Z,9.30
2019-05-03T09:21:26.034Z,9.30
2019-05-03T09:23:56.093Z,9.30
2019-05-03T09:26:29.090Z,9.30
2019-05-03T09:28:58.057Z,9.40
2019-05-03T09:31:28.153Z,9.40
2019-05-03T09:33:58.194Z,9.40
2019-05-03T09:36:28.485Z,9.30
2019-05-03T09:38:58.816Z,9.30
2019-05-03T09:41:28.836Z,9.30
2019-05-03T09:43:59.151Z,9.40
2019-05-03T09:46:29.319Z,9.40
2019-05-03T09:49:12.612Z,9.50
2019-05-03T09:51:30.992Z,9.70
2019-05-03T09:54:07.545Z,10.00
2019-05-03T09:56:58.411Z,10.20
2019-05-03T09:59:28.211Z,10.30
2019-05-03T10:01:59.185Z,10.30
2019-05-03T10:04:29.588Z,10.40
2019-05-03T10:06:59.788Z,10.30
2019-05-03T10:09:30.045Z,10.20
2019-05-03T10:12:00.972Z,10.10
2019-05-03T10:14:31.227Z,10.00
2019-05-03T10:17:25.207Z,10.00
2019-05-03T10:19:55.415Z,9.90
2019-05-03T10:22:27.996Z,9.90
2019-05-03T10:24:58.147Z,10.00
2019-05-03T10:27:30.235Z,10.10
2019-05-03T10:30:12.205Z,10.10
2019-05-03T10:32:41.013Z,10.00
2019-05-03T10:35:14.989Z,10.20
2019-05-03T10:37:45.421Z,10.20
2019-05-03T10:40:25.138Z,10.10
2019-05-03T10:42:55.584Z,10.00
2019-05-03T10:45:28.103Z,10.00
2019-05-03T10:47:58.939Z,10.20
2019-05-03T10:50:35.002Z,10.20
2019-05-03T10:53:10.620Z,10.30
2019-05-03T10:55:45.180Z,10.30
2019-05-03T10:58:19.330Z,10.20
2019-05-03T11:00:53.369Z,10.30
2019-05-03T11:03:23.816Z,10.40
2019-05-03T11:05:54.936Z,10.40
2019-05-03T11:08:25.661Z,10.40
2019-05-03T11:10:56.393Z,10.50
2019-05-03T11:13:28.607Z,10.50
2019-05-03T11:15:59.448Z,10.30
2019-05-03T11:18:30.071Z,10.30
2019-05-03T11:21:02.503Z,10.30
2019-05-03T11:23:37.706Z,10.30
2019-05-03T11:26:07.899Z,10.50
2019-05-03T11:28:37.551Z,10.60
2019-05-03T11:31:35.972Z,10.70
2019-05-03T11:34:08.751Z,10.80
2019-05-03T11:36:52.061Z,10.80
2019-05-03T11:39:21.842Z,10.80
2019-05-03T11:41:55.059Z,11.00
2019-05-03T11:44:40.327Z,11.00
2019-05-03T11:47:10.548Z,11.00
2019-05-03T11:49:40.489Z,11.10
2019-05-03T11:52:10.619Z,11.10
2019-05-03T11:54:40.675Z,11.20
2019-05-03T11:57:17.290Z,11.40
2019-05-03T11:59:47.045Z,11.60
2019-05-03T12:02:38.979Z,11.60
2019-05-03T12:05:15.128Z,11.80
2019-05-03T12:07:45.483Z,12.00
2019-05-03T12:10:30.953Z,12.30
2019-05-03T12:12:49.291Z,12.50
2019-05-03T12:15:19.310Z,12.50
2019-05-03T12:17:55.297Z,12.50
2019-05-03T12:20:24.686Z,12.40
2019-05-03T12:22:54.958Z,12.60
2019-05-03T12:25:26.271Z,12.60
2019-05-03T12:27:56.902Z,12.30
2019-05-03T12:30:27.804Z,12.30
2019-05-03T12:32:57.650Z,12.10
2019-05-03T12:35:28.137Z,12.20
2019-05-03T12:37:57.984Z,12.00
2019-05-03T12:40:27.733Z,12.60
2019-05-03T12:42:58.178Z,12.50
2019-05-03T12:45:28.264Z,12.40
2019-05-03T12:47:58.842Z,12.70
2019-05-03T12:50:28.825Z,12.80
2019-05-03T12:52:58.590Z,12.90
2019-05-03T12:55:28.635Z,13.20
2019-05-03T12:57:58.370Z,13.20
2019-05-03T13:01:04.553Z,13.00
2019-05-03T13:03:40.202Z,12.90
2019-05-03T13:06:09.938Z,12.80
2019-05-03T13:08:42.707Z,12.60
2019-05-03T13:11:12.514Z,12.60
2019-05-03T13:13:42.305Z,12.50
2019-05-03T13:16:15.655Z,12.40
2019-05-03T13:18:45.915Z,12.60
2019-05-03T13:21:16.010Z,12.80
2019-05-03T13:23:46.550Z,13.00
2019-05-03T13:26:17.962Z,13.00
2019-05-03T13:28:47.946Z,13.40
2019-05-03T13:31:18.771Z,13.80
2019-05-03T13:33:48.733Z,14.20
2019-05-03T13:36:18.999Z,14.50
2019-05-03T13:38:48.762Z,14.30
2019-05-03T13:41:18.798Z,14.00
2019-05-03T13:43:49.242Z,13.70
2019-05-03T13:46:19.107Z,13.80
2019-05-03T13:48:49.308Z,14.00
2019-05-03T13:51:19.150Z,14.30
2019-05-03T13:53:48.914Z,14.30
2019-05-03T13:56:18.946Z,14.30
2019-05-03T13:58:48.861Z,14.50
2019-05-03T14:01:19.714Z,14.50
2019-05-03T14:03:49.417Z,14.30
2019-05-03T14:06:19.529Z,14.30
2019-05-03T14:08:49.225Z,14.40
2019-05-03T14:11:19.467Z,15.00
2019-05-03T14:13:49.246Z,16.10
2019-05-03T14:16:19.645Z,16.30
2019-05-03T14:18:51.187Z,16.60
2019-05-03T14:21:26.447Z,16.40
2019-05-03T14:24:12.262Z,15.90
2019-05-03T14:26:44.580Z,15.40
2019-05-03T14:29:15.066Z,14.70
2019-05-03T14:31:45.555Z,14.60
2019-05-03T14:34:17.489Z,14.30
2019-05-03T14:36:47.222Z,14.20
2019-05-03T14:39:16.983Z,14.30
2019-05-03T14:41:47.035Z,14.50
2019-05-03T14:44:18.064Z,14.30
2019-05-03T14:46:48.355Z,14.10
2019-05-03T14:49:18.193Z,14.20
2019-05-03T14:51:48.085Z,14.20
2019-05-03T14:54:18.461Z,13.80
2019-05-03T14:57:10.818Z,13.60
2019-05-03T14:59:59.823Z,13.80
2019-05-03T15:02:47.489Z,14.10
2019-05-03T15:05:14.941Z,14.00
2019-05-03T15:07:45.907Z,13.90
2019-05-03T15:10:16.113Z,13.90
2019-05-03T15:12:45.924Z,13.80
2019-05-03T15:15:15.867Z,13.70
2019-05-03T15:17:45.928Z,13.60
2019-05-03T15:20:16.479Z,13.60
2019-05-03T15:22:46.263Z,13.40
2019-05-03T15:25:16.125Z,13.30
2019-05-03T15:27:48.523Z,13.30
2019-05-03T15:30:17.450Z,13.40
2019-05-03T15:32:57.073Z,13.40
2019-05-03T15:35:18.734Z,13.40
2019-05-03T15:37:49.250Z,13.30
2019-05-03T15:40:19.073Z,13.20
2019-05-03T15:42:54.728Z,13.20
2019-05-03T15:45:51.778Z,13.20
2019-05-03T15:48:27.349Z,13.10
2019-05-03T15:50:57.347Z,13.10
2019-05-03T15:53:27.137Z,13.20
2019-05-03T15:55:57.151Z,13.20
2019-05-03T15:58:27.199Z,13.20
2019-05-03T16:00:56.907Z,13.20
2019-05-03T16:03:26.842Z,12.90
2019-05-03T16:05:56.616Z,12.80
2019-05-03T16:08:26.326Z,13.00
2019-05-03T16:10:56.087Z,12.90
2019-05-03T16:13:26.074Z,13.00
2019-05-03T16:15:56.111Z,13.00
2019-05-03T16:18:25.932Z,13.00
2019-05-03T16:20:55.745Z,13.00
2019-05-03T16:23:25.885Z,13.00
2019-05-03T16:25:56.003Z,13.00
2019-05-03T16:28:39.887Z,12.90
2019-05-03T16:31:12.278Z,13.00
2019-05-03T16:33:41.969Z,13.00
2019-05-03T16:36:11.796Z,12.90
2019-05-03T16:38:41.836Z,12.90
2019-05-03T16:41:15.405Z,13.00
2019-05-03T16:43:45.565Z,12.90
2019-05-03T16:46:15.713Z,12.90
2019-05-03T16:48:45.886Z,12.80
2019-05-03T16:51:17.212Z,12.70
2019-05-03T16:53:47.189Z,12.70
2019-05-03T16:56:17.258Z,12.70
2019-05-03T16:58:47.298Z,12.80
2019-05-03T17:01:18.133Z,12.80
2019-05-03T17:03:55.936Z,12.80
2019-05-03T17:06:45.228Z,12.80
2019-05-03T17:09:24.839Z,12.80
2019-05-03T17:12:16.593Z,12.80
2019-05-03T17:14:46.391Z,12.70
2019-05-03T17:17:16.122Z,12.80
2019-05-03T17:19:45.796Z,12.70
2019-05-03T17:22:17.322Z,12.70
2019-05-03T17:24:47.350Z,12.70
2019-05-03T17:27:17.080Z,12.70
2019-05-03T17:29:46.837Z,12.70
2019-05-03T17:32:16.722Z,12.70
2019-05-03T17:34:46.583Z,12.80
2019-05-03T17:37:16.402Z,12.80
2019-05-03T17:39:55.146Z,12.70
2019-05-03T17:42:42.686Z,12.70
2019-05-03T17:45:14.708Z,12.60
2019-05-03T17:47:45.412Z,12.60
2019-05-03T17:50:15.358Z,12.60
2019-05-03T17:53:02.608Z,12.60
2019-05-03T17:55:51.368Z,12.60
2019-05-03T17:58:41.487Z,12.60
2019-05-03T18:01:20.257Z,12.50
2019-05-03T18:04:03.939Z,12.60
2019-05-03T18:06:26.522Z,12.60
2019-05-03T18:09:21.104Z,12.80
2019-05-03T18:11:56.340Z,12.50
2019-05-03T18:14:26.362Z,12.40
2019-05-03T18:16:56.993Z,12.40
2019-05-03T18:19:27.016Z,12.50
2019-05-03T18:21:56.976Z,12.40
2019-05-03T18:24:26.927Z,12.30
2019-05-03T18:26:57.220Z,12.30
2019-05-03T18:29:26.988Z,12.30
2019-05-03T18:31:57.058Z,12.20
2019-05-03T18:34:27.008Z,12.10
2019-05-03T18:36:57.001Z,12.00
2019-05-03T18:39:27.045Z,12.00
2019-05-03T18:41:57.519Z,11.90
2019-05-03T18:44:36.322Z,11.90
2019-05-03T18:47:08.718Z,11.90
2019-05-03T18:49:38.562Z,11.90
2019-05-03T18:52:08.347Z,11.80
2019-05-03T18:54:38.080Z,11.70
2019-05-03T18:57:07.938Z,11.50
2019-05-03T18:59:37.889Z,11.50
2019-05-03T19:02:09.485Z,11.50
2019-05-03T19:04:46.728Z,11.50
2019-05-03T19:07:36.018Z,11.50
2019-05-03T19:10:12.767Z,11.50
2019-05-03T19:12:47.993Z,11.50
2019-05-03T19:15:17.868Z,11.50
2019-05-03T19:17:54.740Z,11.40
2019-05-03T19:20:24.774Z,11.40
2019-05-03T19:22:54.622Z,11.30
2019-05-03T19:25:25.527Z,11.30
2019-05-03T19:27:55.990Z,11.30
2019-05-03T19:30:26.512Z,11.30
2019-05-03T19:32:56.292Z,11.20
2019-05-03T19:35:27.707Z,11.20
2019-05-03T19:37:57.627Z,11.20
2019-05-03T19:40:27.366Z,11.10
2019-05-03T19:42:57.629Z,11.00
2019-05-03T19:45:27.607Z,11.00
2019-05-03T19:47:57.939Z,10.90
2019-05-03T19:50:28.829Z,10.90
2019-05-03T19:53:05.141Z,10.90
2019-05-03T19:55:35.900Z,10.90
2019-05-03T19:58:06.405Z,10.80
2019-05-03T20:00:44.326Z,10.80
2019-05-03T20:03:17.913Z,10.80
2019-05-03T20:06:06.310Z,10.70
2019-05-03T20:08:41.416Z,10.60
2019-05-03T20:11:15.987Z,10.60
2019-05-03T20:13:46.947Z,10.60
2019-05-03T20:16:17.494Z,10.50
2019-05-03T20:18:48.779Z,10.40
2019-05-03T20:21:19.340Z,10.50
2019-05-03T20:23:49.932Z,10.50
2019-05-03T20:26:20.817Z,10.50
2019-05-03T20:28:51.396Z,10.80
2019-05-03T20:31:22.282Z,10.70
2019-05-03T20:33:54.833Z,10.60
2019-05-03T20:36:24.758Z,10.60
2019-05-03T20:38:55.041Z,10.50
2019-05-03T20:41:27.389Z,10.60
2019-05-03T20:44:09.823Z,10.50
2019-05-03T20:47:01.902Z,10.40
2019-05-03T20:49:31.668Z,10.20
2019-05-03T20:52:01.947Z,10.10
2019-05-03T20:54:31.741Z,10.10
2019-05-03T20:57:01.474Z,10.10
2019-05-03T20:59:42.193Z,10.00
2019-05-03T21:02:03.589Z,10.00
2019-05-03T21:04:35.217Z,9.90
2019-05-03T21:07:05.107Z,9.90
2019-05-03T21:09:34.914Z,9.80
2019-05-03T21:12:04.782Z,9.80
2019-05-03T21:14:35.189Z,9.70
2019-05-03T21:17:15.759Z,9.70
2019-05-03T21:19:55.169Z,9.70
2019-05-03T21:22:32.852Z,9.70
2019-05-03T21:25:21.971Z,9.60
2019-05-03T21:27:51.841Z,9.60
2019-05-03T21:30:21.878Z,9.60
2019-05-03T21:32:51.651Z,9.60
2019-05-03T21:35:26.294Z,9.70
2019-05-03T21:37:56.126Z,9.60
2019-05-03T21:40:26.265Z,9.60
2019-05-03T21:42:56.363Z,9.60
2019-05-03T21:45:32.334Z,9.70
2019-05-03T21:48:08.179Z,9.70
2019-05-03T21:50:38.337Z,9.70
2019-05-03T21:53:08.030Z,9.70
2019-05-03T21:55:37.923Z,9.70
2019-05-03T21:58:08.173Z,9.70
2019-05-03T22:00:54.541Z,9.70
2019-05-03T22:03:27.621Z,9.70
2019-05-03T22:05:58.157Z,9.70
2019-05-03T22:08:29.152Z,9.70
2019-05-03T22:10:59.222Z,9.60
2019-05-03T22:13:34.909Z,9.60
2019-05-03T22:16:17.865Z,9.50
2019-05-03T22:18:47.754Z,9.50
2019-05-03T22:21:28.983Z,9.60
2019-05-03T22:24:27.518Z,9.60
2019-05-03T22:26:59.927Z,9.60
2019-05-03T22:29:35.630Z,9.60
2019-05-03T22:32:05.643Z,9.60
2019-05-03T22:34:35.798Z,9.70
2019-05-03T22:37:06.092Z,9.70
2019-05-03T22:39:37.507Z,9.60
2019-05-03T22:42:07.673Z,9.60
2019-05-03T22:44:37.730Z,9.70
2019-05-03T22:47:07.795Z,9.70
2019-05-03T22:49:37.524Z,9.70
2019-05-03T22:52:09.394Z,9.80
2019-05-03T22:54:39.649Z,9.90
2019-05-03T22:57:15.518Z,9.90
2019-05-03T22:59:45.434Z,9.80
2019-05-03T23:02:17.225Z,9.70
2019-05-03T23:04:47.140Z,9.70
2019-05-03T23:07:25.174Z,9.60
2019-05-03T23:09:58.879Z,9.60
2019-05-03T23:12:28.832Z,9.50
2019-05-03T23:14:58.945Z,9.50
2019-05-03T23:17:29.651Z,9.30
2019-05-03T23:20:05.616Z,9.30
2019-05-03T23:22:35.380Z,9.30
2019-05-03T23:25:05.714Z,9.30
2019-05-03T23:27:35.591Z,9.50
2019-05-03T23:30:07.215Z,9.60
2019-05-03T23:32:37.487Z,9.60
2019-05-03T23:35:07.650Z,9.70
2019-05-03T23:37:38.018Z,9.80
2019-05-03T23:40:08.330Z,9.80
2019-05-03T23:42:38.475Z,9.70
2019-05-03T23:45:18.187Z,9.70
2019-05-03T23:47:50.028Z,9.60
2019-05-03T23:50:25.800Z,9.50
2019-05-03T23:53:00.026Z,9.40
2019-05-03T23:55:34.892Z,9.40
2019-05-03T23:58:04.933Z,9.40
